Time;durP1;ratioP1;P1;durP2;ratioP2;P2;SDS_P1;SDS_P2;PMS_P1;PMS_P2;Temp;Humidity;BMP_temperature;BMP_pressure;BME280_temperature;BME280_humidity;BME280_pressure;Samples;Min_cycle;Max_cycle;Signal;HPM_P1;HPM_P2
2023/12/27 00:02:10;;;;;;;3.30;2.23;;;;;;;10.25;66.25;95802.75;4987933;28;20600;-85
2023/12/27 00:04:38;;;;;;;4.27;2.30;;;;;;;10.26;66.25;95807.75;4994459;28;20214;-84
2023/12/27 00:07:17;;;;;;;4.60;2.30;;;;;;;10.25;66.21;95806.16;4997774;28;20220;-84
2023/12/27 00:09:44;;;;;;;5.37;2.17;;;;;;;10.26;66.39;95794.88;4993688;28;20196;-85
2023/12/27 00:12:10;;;;;;;3.30;2.27;;;;;;;10.26;66.39;95804.38;4994364;28;20204;-84
2023/12/27 00:14:36;;;;;;;3.60;2.33;;;;;;;10.26;66.29;95805.19;4993823;28;20297;-84
2023/12/27 00:17:03;;;;;;;4.03;2.13;;;;;;;10.29;66.41;95806.63;5005988;28;20273;-84
2023/12/27 00:19:38;;;;;;;3.37;2.13;;;;;;;10.31;66.40;95807.25;4993872;28;20238;-84
2023/12/27 00:22:06;;;;;;;4.60;2.33;;;;;;;10.31;66.06;95797.75;4991599;28;20565;-85
2023/12/27 00:24:32;;;;;;;3.23;2.40;;;;;;;10.34;66.51;95799.19;4993673;28;20211;-84
2023/12/27 00:26:59;;;;;;;3.33;2.23;;;;;;;10.34;66.37;95800.00;4993674;28;20223;-84
2023/12/27 00:29:25;;;;;;;4.17;2.47;;;;;;;10.32;66.48;95796.78;4992116;28;20210;-84
2023/12/27 00:32:01;;;;;;;3.60;2.10;;;;;;;10.32;66.02;95793.41;4993609;28;20199;-84
2023/12/27 00:34:27;;;;;;;4.83;2.20;;;;;;;10.29;66.35;95804.03;4987413;28;20201;-84
2023/12/27 00:36:54;;;;;;;4.23;2.57;;;;;;;10.25;66.40;95805.34;4991910;28;20226;-84
2023/12/27 00:39:23;;;;;;;3.60;2.40;;;;;;;10.28;66.38;95802.44;4993002;28;20241;-85
2023/12/27 00:41:50;;;;;;;4.87;2.50;;;;;;;10.27;66.24;95793.13;4993087;28;20254;-85
2023/12/27 00:44:21;;;;;;;4.50;2.33;;;;;;;10.29;66.32;95797.13;4992510;28;20685;-85
2023/12/27 00:46:48;;;;;;;3.63;2.33;;;;;;;10.25;66.63;95810.50;4992847;28;20223;-84
2023/12/27 00:49:14;;;;;;;3.60;2.13;;;;;;;10.23;66.29;95808.09;4991122;28;20207;-84
2023/12/27 00:51:41;;;;;;;3.73;2.10;;;;;;;10.22;66.49;95810.81;4992854;28;20210;-85
2023/12/27 00:54:07;;;;;;;2.40;2.03;;;;;;;10.24;66.41;95824.31;4993595;28;20215;-84
2023/12/27 00:56:35;;;;;;;3.50;2.40;;;;;;;10.25;66.25;95825.94;4992988;28;20228;-84
2023/12/27 00:59:02;;;;;;;3.50;2.10;;;;;;;10.30;66.30;95821.09;4992697;28;20226;-84
2023/12/27 01:01:30;;;;;;;2.90;2.03;;;;;;;10.30;66.50;95813.38;4993447;28;20215;-84
2023/12/27 01:03:58;;;;;;;4.00;2.13;;;;;;;10.31;66.30;95828.63;4992392;28;20203;-84
2023/12/27 01:06:24;;;;;;;3.57;2.13;;;;;;;10.33;66.40;95816.41;4990672;28;20231;-84
2023/12/27 01:08:51;;;;;;;2.57;1.90;;;;;;;10.33;66.31;95813.03;4991784;28;20195;-85
2023/12/27 01:11:17;;;;;;;3.60;2.30;;;;;;;10.29;66.45;95824.63;4992075;28;20229;-84
2023/12/27 01:13:45;;;;;;;4.53;2.63;;;;;;;10.28;66.40;95821.25;4996857;28;20206;-84
2023/12/27 01:16:13;;;;;;;4.33;2.30;;;;;;;10.29;66.69;95815.13;5012106;28;20233;-84
2023/12/27 01:18:40;;;;;;;4.57;2.20;;;;;;;10.27;66.59;95824.78;5011526;28;20317;-85
2023/12/27 01:21:06;;;;;;;2.70;1.97;;;;;;;10.29;66.53;95834.91;4998980;28;20207;-84
2023/12/27 01:23:33;;;;;;;2.87;2.10;;;;;;;10.32;66.69;95840.53;4985954;28;20207;-84
2023/12/27 01:25:59;;;;;;;3.80;2.07;;;;;;;10.32;66.83;95840.53;4972935;28;20240;-85
2023/12/27 01:28:26;;;;;;;4.20;2.00;;;;;;;10.30;66.48;95847.63;4973199;28;20204;-85
2023/12/27 01:30:53;;;;;;;2.73;1.90;;;;;;;10.28;66.59;95852.13;4991549;28;20196;-84
2023/12/27 01:33:20;;;;;;;5.07;2.30;;;;;;;10.30;66.73;95850.19;4992246;28;20199;-84
2023/12/27 01:35:48;;;;;;;4.27;2.10;;;;;;;10.32;66.79;95863.72;4991948;28;20232;-85
2023/12/27 01:38:14;;;;;;;3.87;2.27;;;;;;;10.31;66.88;95862.09;4990210;28;20231;-84
2023/12/27 01:40:48;;;;;;;2.90;2.10;;;;;;;10.28;67.31;95869.34;4992057;28;20211;-84
2023/12/27 01:43:14;;;;;;;3.90;2.10;;;;;;;10.27;67.39;95872.88;4992012;28;20214;-85
2023/12/27 01:45:41;;;;;;;3.57;2.10;;;;;;;10.30;67.27;95869.97;4991124;28;20227;-85
2023/12/27 01:48:11;;;;;;;3.47;2.50;;;;;;;10.29;67.04;95876.91;4991777;28;20199;-85
2023/12/27 01:50:38;;;;;;;4.13;2.23;;;;;;;10.29;67.40;95884.63;4991203;28;20200;-85
2023/12/27 01:53:05;;;;;;;3.67;2.20;;;;;;;10.30;67.45;95888.00;4991893;28;20203;-84
2023/12/27 01:55:31;;;;;;;3.10;2.20;;;;;;;10.28;67.44;95879.63;4989115;28;20223;-84
2023/12/27 01:57:58;;;;;;;3.67;1.93;;;;;;;10.25;67.71;95882.53;4992149;28;20230;-84
2023/12/27 02:00:24;;;;;;;3.97;2.13;;;;;;;10.24;67.54;95873.22;4991892;28;20200;-85
2023/12/27 02:02:51;;;;;;;3.10;2.20;;;;;;;10.24;67.51;95878.38;4990866;28;20191;-83
2023/12/27 02:05:20;;;;;;;5.07;2.10;;;;;;;10.23;67.70;95879.31;4991764;28;20720;-85
2023/12/27 02:07:47;;;;;;;4.77;2.40;;;;;;;10.19;67.45;95883.22;4992350;28;20203;-84
2023/12/27 02:10:14;;;;;;;2.47;1.97;;;;;;;10.19;67.73;95881.47;4990054;28;20204;-84
2023/12/27 02:12:40;;;;;;;4.00;2.33;;;;;;;10.19;67.74;95865.22;4992175;28;20199;-85
2023/12/27 02:15:07;;;;;;;2.70;2.20;;;;;;;10.20;67.49;95864.25;5007629;28;20557;-84
2023/12/27 02:17:34;;;;;;;4.20;2.00;;;;;;;10.21;67.56;95879.50;5006194;28;20196;-84
2023/12/27 02:20:01;;;;;;;2.60;2.00;;;;;;;10.21;67.64;95858.91;4990892;28;20304;-84
2023/12/27 02:22:31;;;;;;;5.77;2.10;;;;;;;10.19;67.53;95871.16;4991434;28;20670;-85
2023/12/27 02:25:00;;;;;;;3.97;2.33;;;;;;;10.16;67.84;95866.31;4990860;28;20203;-85
2023/12/27 02:27:26;;;;;;;3.43;2.10;;;;;;;10.16;67.76;95878.38;4986719;28;20297;-84
2023/12/27 02:29:53;;;;;;;2.70;2.00;;;;;;;10.18;68.13;95874.69;4990125;28;20408;-85
2023/12/27 02:32:19;;;;;;;2.77;2.07;;;;;;;10.21;67.69;95863.25;4990623;28;20203;-84
2023/12/27 02:34:50;;;;;;;2.13;1.83;;;;;;;10.19;67.66;95850.59;4991183;28;20214;-85
2023/12/27 02:37:16;;;;;;;2.80;1.87;;;;;;;10.18;67.76;95846.38;4991213;28;20716;-84
2023/12/27 02:39:43;;;;;;;4.17;2.00;;;;;;;10.14;67.76;95849.44;4990858;28;20230;-85
2023/12/27 02:42:11;;;;;;;3.67;1.93;;;;;;;10.14;67.71;95839.94;4989088;28;20206;-84
2023/12/27 02:44:37;;;;;;;3.37;1.70;;;;;;;10.17;67.79;95841.38;4991139;28;20206;-84
2023/12/27 02:47:06;;;;;;;3.17;2.00;;;;;;;10.18;67.66;95851.53;4991206;28;20223;-84
2023/12/27 02:49:32;;;;;;;3.10;2.00;;;;;;;10.22;67.70;95846.84;4990881;28;20231;-84
2023/12/27 02:51:59;;;;;;;3.93;1.90;;;;;;;10.25;67.60;95834.44;4991496;28;20214;-84
2023/12/27 02:54:25;;;;;;;2.50;1.60;;;;;;;10.28;67.90;95833.31;4990907;28;20288;-85
2023/12/27 02:56:52;;;;;;;2.37;1.87;;;;;;;10.24;67.99;95842.34;4990533;28;20227;-84
2023/12/27 02:59:19;;;;;;;4.50;2.00;;;;;;;10.22;67.84;95833.97;4988645;28;20227;-84
2023/12/27 03:01:46;;;;;;;4.00;2.00;;;;;;;10.22;68.17;95839.94;4989978;28;20207;-84
2023/12/27 03:04:12;;;;;;;4.23;2.30;;;;;;;10.26;68.27;95843.78;4990952;28;20206;-85
2023/12/27 03:06:44;;;;;;;3.00;1.80;;;;;;;10.28;68.19;95844.41;4991052;28;20227;-85
2023/12/27 03:09:10;;;;;;;2.77;2.57;;;;;;;10.30;67.88;95829.59;4989654;28;20180;-84
2023/12/27 03:11:37;;;;;;;4.20;2.20;;;;;;;10.29;68.19;95833.16;4990840;28;20295;-84
2023/12/27 03:14:04;;;;;;;2.17;1.97;;;;;;;10.30;68.11;95831.38;4998198;28;20191;-84
2023/12/27 03:16:32;;;;;;;2.40;1.90;;;;;;;10.32;67.96;95839.75;4989112;28;20219;-85
2023/12/27 03:18:59;;;;;;;4.43;2.00;;;;;;;10.30;68.06;95831.38;4990547;28;20224;-84
2023/12/27 03:21:30;;;;;;;3.10;1.80;;;;;;;10.29;68.08;95820.28;4991123;28;20617;-84
2023/12/27 03:23:57;;;;;;;3.13;1.93;;;;;;;10.26;68.15;95823.19;4991328;28;20195;-85
2023/12/27 03:26:23;;;;;;;1.97;1.77;;;;;;;10.25;68.08;95798.44;4990539;28;20230;-85
2023/12/27 03:28:50;;;;;;;5.03;1.93;;;;;;;10.21;67.98;95792.00;4990889;28;20195;-84
2023/12/27 03:31:16;;;;;;;3.83;1.77;;;;;;;10.20;68.09;95803.25;4988021;28;20211;-85
2023/12/27 03:33:52;;;;;;;5.20;2.30;;;;;;;10.22;67.81;95806.47;4990016;28;20666;-85
2023/12/27 03:36:19;;;;;;;2.20;1.80;;;;;;;10.24;67.96;95814.03;4990124;28;20895;-85
2023/12/27 03:38:45;;;;;;;4.53;2.03;;;;;;;10.24;68.18;95819.97;4990262;28;20238;-85
2023/12/27 03:41:11;;;;;;;2.97;1.97;;;;;;;10.25;68.63;95831.88;4990116;28;20287;-84
2023/12/27 03:43:38;;;;;;;4.33;1.93;;;;;;;10.26;68.59;95823.19;4990701;28;20213;-85
2023/12/27 03:46:04;;;;;;;3.03;1.93;;;;;;;10.25;68.26;95819.00;4989621;28;20250;-85
2023/12/27 03:48:31;;;;;;;3.87;1.80;;;;;;;10.26;68.04;95801.81;4988823;28;20210;-84
2023/12/27 03:51:00;;;;;;;4.20;1.80;;;;;;;10.22;68.11;95803.91;4990519;28;20213;-84
2023/12/27 03:53:27;;;;;;;3.60;1.80;;;;;;;10.23;68.25;95808.09;4989634;28;20210;-84
2023/12/27 03:55:53;;;;;;;3.13;1.97;;;;;;;10.15;68.29;95817.59;4990522;28;20243;-84
2023/12/27 03:58:20;;;;;;;2.73;2.00;;;;;;;10.14;68.80;95826.28;4990326;28;20218;-84
2023/12/27 04:00:46;;;;;;;5.77;2.20;;;;;;;10.16;68.73;95835.44;4989859;28;20199;-84
2023/12/27 04:03:14;;;;;;;2.00;1.80;;;;;;;10.16;69.06;95832.88;4989111;28;20211;-84
2023/12/27 04:05:40;;;;;;;3.07;1.83;;;;;;;10.20;69.12;95843.66;4990433;28;20253;-85
2023/12/27 04:08:07;;;;;;;4.90;1.93;;;;;;;10.21;68.62;95833.19;4990328;28;20222;-85
2023/12/27 04:10:34;;;;;;;2.67;1.60;;;;;;;10.22;69.07;95844.28;4992961;28;20242;-85
2023/12/27 04:13:00;;;;;;;2.23;1.60;;;;;;;10.21;68.96;95833.19;4977111;28;20207;-86
2023/12/27 04:15:26;;;;;;;3.27;2.20;;;;;;;10.22;69.02;95839.13;4993121;28;20219;-86
2023/12/27 04:17:53;;;;;;;2.87;1.90;;;;;;;10.20;69.14;95852.16;4993974;28;20211;-85
2023/12/27 04:20:19;;;;;;;1.87;1.70;;;;;;;10.20;68.84;95848.81;4991092;28;20227;-85
2023/12/27 04:22:46;;;;;;;2.37;1.60;;;;;;;10.18;69.14;95863.59;4993193;28;20226;-85
2023/12/27 04:25:13;;;;;;;2.50;1.90;;;;;;;10.13;69.29;95861.50;4993821;28;20200;-84
2023/12/27 04:27:40;;;;;;;3.47;1.87;;;;;;;10.13;69.52;95869.22;4993674;28;20203;-85
2023/12/27 04:30:07;;;;;;;2.97;2.00;;;;;;;10.12;69.82;95866.81;4992799;28;20637;-85
2023/12/27 04:32:33;;;;;;;3.20;1.80;;;;;;;10.09;69.89;95874.84;4994258;28;20199;-85
2023/12/27 04:35:00;;;;;;;2.23;2.03;;;;;;;10.10;70.17;95882.41;4991922;28;20207;-85
2023/12/27 04:37:26;;;;;;;3.77;1.87;;;;;;;10.09;69.77;95893.66;4995624;28;20234;-85
2023/12/27 04:39:53;;;;;;;3.87;1.97;;;;;;;10.08;70.02;95899.78;5011793;28;20286;-84
2023/12/27 04:42:20;;;;;;;3.70;1.73;;;;;;;10.10;70.08;95897.03;5011758;28;20210;-85
2023/12/27 04:44:47;;;;;;;2.70;1.80;;;;;;;10.10;70.62;95900.41;5010118;28;20204;-84
2023/12/27 04:47:13;;;;;;;3.10;1.87;;;;;;;10.12;70.62;95902.81;5008035;28;20227;-85
2023/12/27 04:49:39;;;;;;;4.97;2.17;;;;;;;10.11;70.39;95916.66;5008407;28;20259;-86
2023/12/27 04:52:06;;;;;;;2.90;1.87;;;;;;;10.08;70.91;95914.41;5007782;28;20610;-83
2023/12/27 04:54:32;;;;;;;4.40;2.03;;;;;;;10.06;70.37;95901.72;5009409;28;20229;-84
2023/12/27 04:56:59;;;;;;;4.43;2.10;;;;;;;10.03;70.92;95902.84;5007490;28;20231;-85
2023/12/27 04:59:27;;;;;;;3.20;2.23;;;;;;;10.04;70.79;95894.16;5007253;28;20227;-85
2023/12/27 05:01:54;;;;;;;2.57;2.00;;;;;;;10.02;70.81;95895.28;5000955;28;20199;-86
2023/12/27 05:04:20;;;;;;;2.60;1.93;;;;;;;10.01;71.12;95902.19;4997288;28;20266;-85
2023/12/27 05:06:47;;;;;;;1.97;1.77;;;;;;;10.00;71.24;95903.19;4996955;28;20230;-85
2023/12/27 05:09:16;;;;;;;3.03;2.00;;;;;;;9.93;70.98;95904.00;4991834;28;20206;-86
2023/12/27 05:11:42;;;;;;;3.27;2.00;;;;;;;9.91;70.86;95890.50;5004868;28;20290;-86
2023/12/27 05:14:09;;;;;;;2.80;1.87;;;;;;;9.90;70.90;95896.59;5015339;28;20206;-85
2023/12/27 05:16:37;;;;;;;2.13;1.80;;;;;;;9.90;71.07;95891.47;5004047;28;20222;-86
2023/12/27 05:19:04;;;;;;;2.90;2.10;;;;;;;9.90;70.73;95884.56;4992951;28;20230;-85
2023/12/27 05:21:30;;;;;;;4.57;2.33;;;;;;;9.89;70.44;95874.44;4992751;28;20204;-85
2023/12/27 05:23:56;;;;;;;5.07;2.30;;;;;;;9.88;70.51;95868.47;4987823;28;20238;-85
2023/12/27 05:26:23;;;;;;;3.87;2.57;;;;;;;9.86;70.17;95865.28;4991722;28;20223;-85
2023/12/27 05:28:49;;;;;;;5.27;2.43;;;;;;;9.84;70.51;95871.53;4991091;28;20229;-85
2023/12/27 05:31:16;;;;;;;3.90;2.40;;;;;;;9.79;70.65;95864.34;4991426;28;20205;-85
2023/12/27 05:33:48;;;;;;;2.47;2.00;;;;;;;9.75;70.53;95878.50;4988830;28;20207;-86
2023/12/27 05:36:16;;;;;;;2.50;2.30;;;;;;;9.71;70.88;95884.91;5006004;23;20226;-85
2023/12/27 05:38:44;;;;;;;2.73;2.33;;;;;;;9.69;70.89;95892.78;5011030;28;20210;-86
2023/12/27 05:41:10;;;;;;;4.27;2.60;;;;;;;9.64;70.48;95876.25;5010020;28;20229;-85
2023/12/27 05:43:37;;;;;;;5.53;2.17;;;;;;;9.55;71.10;95877.22;5026880;28;20286;-86
2023/12/27 05:46:03;;;;;;;4.13;2.30;;;;;;;9.44;71.00;95886.06;5011354;28;20227;-85
2023/12/27 05:48:30;;;;;;;3.07;2.27;;;;;;;9.37;71.40;95894.59;4992883;28;20199;-86
2023/12/27 05:50:58;;;;;;;3.13;2.17;;;;;;;9.39;71.52;95900.38;4991836;28;20269;-85
2023/12/27 05:57:40;;;;;;;3.07;2.30;;;;;;;9.38;71.55;95894.44;4984450;28;20251;-86
2023/12/27 06:00:39;;;;;;;3.70;2.20;;;;;;;9.37;71.59;95890.25;4997661;28;20280;-87
2023/12/27 06:04:03;;;;;;;3.03;1.97;;;;;;;9.37;71.47;95882.56;4994551;28;20254;-86
2023/12/27 06:06:56;;;;;;;2.93;2.00;;;;;;;9.38;71.40;95881.59;4964829;28;20865;-86
2023/12/27 06:13:34;;;;;;;4.13;2.40;;;;;;;9.33;71.47;95888.97;4869173;29;20383;-86
2023/12/27 06:16:08;;;;;;;3.53;2.30;;;;;;;9.28;71.50;95897.16;4873803;29;20733;-86
2023/12/27 06:21:41;;;;;;;2.83;2.40;;;;;;;9.20;72.12;95906.66;4970675;28;20450;-86
2023/12/27 06:24:09;;;;;;;3.40;2.40;;;;;;;9.17;72.17;95912.09;4990270;28;20226;-85
2023/12/27 06:26:37;;;;;;;4.03;2.33;;;;;;;9.10;72.49;95911.91;5017483;23;20237;-86
2023/12/27 06:31:51;;;;;;;5.33;3.37;;;;;;;9.09;72.13;95918.00;5014769;28;20290;-86
2023/12/27 07:33:03;;;;;;;4.03;3.03;;;;;;;8.62;76.23;95998.16;4921532;28;20266;-87
2023/12/27 07:36:16;;;;;;;4.07;2.70;;;;;;;8.61;75.78;96006.81;4964415;28;20223;-86
2023/12/27 07:55:00;;;;;;;;;;;;;;;;;;;;;
2023/12/27 08:21:11;;;;;;;;;;;;;;;;;;;;;
2023/12/27 08:24:11;;;;;;;3.97;2.60;;;;;;;9.83;67.47;95760.16;4940031;28;20217;-86
2023/12/27 08:30:24;;;;;;;2.37;2.17;;;;;;;10.52;64.64;95644.47;4899665;29;20281;-86
2023/12/27 08:33:31;;;;;;;5.03;4.37;;;;;;;10.90;63.56;95606.59;4967948;28;20211;-87
2023/12/27 08:36:30;;;;;;;;;;;;;;;;;;;;;
2023/12/27 08:39:05;;;;;;;4.43;2.63;;;;;;;11.05;61.23;95488.88;4985610;28;20199;-86
2023/12/27 08:48:55;;;;;;;2.77;1.80;;;;;;;11.68;58.58;95384.16;4975937;28;20199;-87
2023/12/27 09:03:04;;;;;;;2.13;1.70;;;;;;;10.51;59.90;95406.03;4943643;29;20225;-86
2023/12/27 09:06:23;;;;;;;;;;;;;;;;;;;;;
2023/12/27 09:08:54;;;;;;;3.23;1.60;;;;;;;9.90;61.27;95477.41;4933464;28;20207;-82
2023/12/27 09:12:02;;;;;;;1.80;1.60;;;;;;;9.65;62.49;95528.22;4993790;28;20262;-86
2023/12/27 09:15:19;;;;;;;2.33;2.00;;;;;;;9.57;61.57;95503.41;4990591;28;20353;-86
2023/12/27 09:24:56;;;;;;;1.90;1.60;;;;;;;10.60;59.39;95405.75;4894370;29;20219;-86
2023/12/27 09:34:44;;;;;;;3.33;1.77;;;;;;;10.79;58.53;95363.16;4925433;29;20209;-86
2023/12/27 09:37:43;;;;;;;;;;;;;;;;;;;;;
2023/12/27 10:08:27;;;;;;;1.83;1.70;;;;;;;11.71;55.44;95173.09;4955007;28;20769;-85
2023/12/27 10:11:35;;;;;;;2.07;1.60;;;;;;;11.52;55.97;95178.19;4977217;28;20205;-86
2023/12/27 10:17:31;;;;;;;1.73;1.47;;;;;;;11.25;56.68;95213.34;4928424;29;20643;-85
2023/12/27 10:20:59;;;;;;;;;;;;;;;;;;;;;
2023/12/27 10:23:27;;;;;;;2.53;1.47;;;;;;;11.25;57.27;95246.84;4994011;28;20293;-85
2023/12/27 10:25:56;;;;;;;3.43;2.03;;;;;;;11.26;56.96;95231.19;4992781;28;20709;-86
2023/12/27 10:28:26;;;;;;;2.93;1.80;;;;;;;11.13;57.08;95215.66;4990420;28;20283;-86
2023/12/27 10:30:53;;;;;;;3.90;1.63;;;;;;;11.11;57.25;95214.25;4987160;28;20211;-85
2023/12/27 10:33:39;;;;;;;1.73;1.63;;;;;;;10.99;57.02;95209.59;4984971;28;20682;-85
2023/12/27 10:39:20;;;;;;;1.70;1.60;;;;;;;11.00;57.39;95205.25;4969226;28;20295;-85
2023/12/27 10:45:01;;;;;;;1.83;1.50;;;;;;;11.06;56.63;95158.91;4981729;28;20207;-85
2023/12/27 10:47:51;;;;;;;1.50;1.40;;;;;;;11.11;56.39;95153.19;4984354;28;20257;-85
2023/12/27 10:53:19;;;;;;;1.83;1.50;;;;;;;11.32;55.46;95085.31;4987114;28;20211;-85
2023/12/27 10:56:33;;;;;;;2.27;1.80;;;;;;;11.28;55.27;95059.13;4988541;28;20223;-85
2023/12/27 11:02:25;;;;;;;2.80;1.50;;;;;;;11.52;54.77;95034.63;4985566;28;20235;-85
2023/12/27 11:05:03;;;;;;;1.47;1.37;;;;;;;11.82;54.27;95004.13;4976716;28;20207;-85
2023/12/27 11:10:24;;;;;;;1.40;1.30;;;;;;;12.04;52.62;94906.66;4986935;28;20662;-85
2023/12/27 11:13:02;;;;;;;2.07;1.40;;;;;;;12.04;51.99;94862.81;4988392;28;20700;-86
2023/12/27 11:15:45;;;;;;;1.97;1.77;;;;;;;12.23;51.76;94864.53;4988495;28;20286;-85
2023/12/27 11:18:23;;;;;;;3.27;1.50;;;;;;;12.34;50.19;94763.22;4988813;28;20204;-84
2023/12/27 11:21:09;;;;;;;1.83;1.40;;;;;;;12.30;49.81;94720.78;4987310;28;20230;-84
2023/12/27 11:44:48;;;;;;;1.30;1.20;;;;;;;12.97;48.40;94651.28;4947890;29;20276;-87
2023/12/27 11:47:48;;;;;;;2.17;1.30;;;;;;;13.23;48.28;94643.31;4904685;28;20226;-86
2023/12/27 11:50:44;;;;;;;1.60;1.50;;;;;;;13.51;48.01;94634.22;4995018;28;20198;-85
2023/12/27 11:55:57;;;;;;;1.37;1.27;;;;;;;13.55;47.82;94596.59;5019127;28;20233;-84
2023/12/27 11:58:51;;;;;;;3.73;3.40;;;;;;;13.46;46.52;94539.22;5029039;28;20555;-86
2023/12/27 12:01:41;;;;;;;1.50;1.40;;;;;;;13.45;46.71;94555.75;5021851;28;20313;-86
2023/12/27 12:07:55;;;;;;;1.48;1.38;;;;;;;13.95;46.48;94551.06;5013140;28;20848;-85
2023/12/27 12:10:41;;;;;;;1.50;1.40;;;;;;;14.06;45.91;94508.84;5005416;28;20234;-85
2023/12/27 12:13:25;;;;;;;2.42;1.60;;;;;;;14.07;45.88;94513.03;5018868;28;20202;-83
2023/12/27 12:16:17;;;;;;;3.90;1.67;;;;;;;14.00;45.68;94490.88;5013776;28;20235;-86
2023/12/27 12:22:04;;;;;;;1.67;1.55;;;;;;;14.22;45.54;94478.16;4950638;28;20236;-84
2023/12/27 12:31:56;;;;;;;2.92;1.60;;;;;;;14.42;44.19;94385.41;4882150;29;20216;-84
2023/12/27 12:34:33;;;;;;;3.40;1.50;;;;;;;14.54;45.03;94429.38;4914273;29;20218;-85
2023/12/27 12:37:05;;;;;;;2.72;1.40;;;;;;;14.78;43.99;94405.78;4921182;29;20213;-83
2023/12/27 12:39:42;;;;;;;1.70;1.60;;;;;;;14.91;43.71;94355.47;4994641;28;20282;-84
2023/12/27 12:42:24;;;;;;;1.38;1.27;;;;;;;14.92;42.52;94315.56;5017800;28;20486;-85
2023/12/27 12:45:06;;;;;;;1.40;1.30;;;;;;;14.74;42.75;94280.31;5032817;28;20639;-85
2023/12/27 12:47:46;;;;;;;3.90;1.70;;;;;;;14.40;43.17;94317.47;5033298;28;20365;-86
2023/12/27 12:53:16;;;;;;;2.42;1.67;;;;;;;14.32;43.74;94362.63;5029736;28;20206;-85
2023/12/27 12:55:56;;;;;;;;;;;;;;;;;;;;;
2023/12/27 12:58:44;;;;;;;1.65;1.50;;;;;;;14.45;44.01;94349.44;5014497;28;20213;-85
2023/12/27 13:01:42;;;;;;;2.35;1.30;;;;;;;14.49;43.06;94293.59;5013798;28;20610;-84
2023/12/27 13:07:38;;;;;;;1.70;1.58;;;;;;;14.31;43.49;94295.56;4932609;28;20352;-84
2023/12/27 13:10:13;;;;;;;1.60;1.50;;;;;;;14.27;43.43;94294.44;5030386;28;20285;-84
2023/12/27 13:12:42;;;;;;;2.13;2.00;;;;;;;14.14;43.82;94309.22;5012929;28;20195;-85
2023/12/27 13:15:29;;;;;;;2.20;2.00;;;;;;;14.15;44.11;94328.91;5013374;28;20715;-85
2023/12/27 13:18:00;;;;;;;3.00;2.50;;;;;;;14.34;43.89;94332.13;4993667;28;20203;-85
2023/12/27 13:23:41;;;;;;;1.88;1.77;;;;;;;14.31;43.52;94296.34;5023493;28;20225;-84
2023/12/27 13:26:40;;;;;;;1.70;1.55;;;;;;;14.24;43.82;94308.63;5004536;28;20715;-84
2023/12/27 13:29:35;;;;;;;1.88;1.65;;;;;;;13.98;44.02;94312.53;4996308;28;20211;-84
2023/12/27 13:32:31;;;;;;;2.10;1.70;;;;;;;13.75;44.17;94322.91;5012542;28;20214;-84
2023/12/27 13:35:22;;;;;;;2.90;1.73;;;;;;;13.51;45.27;94362.72;4904959;29;20213;-84
2023/12/27 13:38:36;;;;;;;1.85;1.67;;;;;;;13.43;45.13;94367.22;4926038;28;20824;-85
2023/12/27 13:41:43;;;;;;;1.87;1.50;;;;;;;13.12;45.67;94385.56;5028944;28;20202;-84
2023/12/27 13:44:38;;;;;;;1.77;1.63;;;;;;;12.96;46.24;94419.78;4995623;28;20230;-84
2023/12/27 13:47:32;;;;;;;2.03;1.83;;;;;;;12.98;46.73;94452.13;5006388;28;20231;-84
2023/12/27 13:50:22;;;;;;;2.20;1.87;;;;;;;12.96;46.77;94463.69;5022509;28;20198;-85
2023/12/27 13:52:55;;;;;;;1.80;1.70;;;;;;;12.90;46.98;94462.75;5029345;28;20205;-84
2023/12/27 13:55:22;;;;;;;3.57;2.20;;;;;;;12.87;47.20;94472.78;5012236;28;20232;-86
2023/12/27 13:57:49;;;;;;;4.03;2.00;;;;;;;12.76;47.88;94498.31;5012369;28;20203;-84
2023/12/27 14:00:22;;;;;;;2.87;2.00;;;;;;;12.68;48.01;94524.44;5020719;28;20199;-83
2023/12/27 14:02:49;;;;;;;2.13;1.93;;;;;;;12.61;47.96;94522.91;5019464;28;20229;-83
2023/12/27 14:05:17;;;;;;;2.13;1.90;;;;;;;12.56;48.35;94525.34;4989840;28;20242;-84
2023/12/27 14:07:43;;;;;;;2.00;1.80;;;;;;;12.52;48.90;94550.00;5014443;28;20254;-84
2023/12/27 14:10:15;;;;;;;2.67;1.87;;;;;;;12.39;48.60;94553.50;5009506;28;20203;-85
2023/12/27 14:12:43;;;;;;;2.07;1.70;;;;;;;12.39;48.99;94569.00;5000504;28;20237;-84
2023/12/27 14:15:10;;;;;;;2.43;1.93;;;;;;;12.31;49.32;94592.50;5009717;28;20715;-84
2023/12/27 14:17:42;;;;;;;2.37;2.10;;;;;;;12.23;49.55;94598.72;5009597;28;20869;-84
2023/12/27 14:20:12;;;;;;;2.20;1.90;;;;;;;12.19;50.12;94612.25;5009594;28;20237;-84
2023/12/27 14:22:40;;;;;;;2.23;1.90;;;;;;;12.17;49.94;94625.34;5024835;28;20226;-84
2023/12/27 14:25:08;;;;;;;2.30;1.90;;;;;;;12.22;50.08;94632.47;5029107;28;20208;-84
2023/12/27 14:27:35;;;;;;;3.97;2.20;;;;;;;12.21;50.24;94631.69;5030429;28;20312;-85
2023/12/27 14:30:02;;;;;;;2.57;1.93;;;;;;;12.31;50.20;94639.75;5029386;28;20675;-85
2023/12/27 14:32:29;;;;;;;3.30;1.93;;;;;;;12.30;50.41;94643.34;5015921;28;20241;-85
2023/12/27 14:34:56;;;;;;;2.73;2.00;;;;;;;12.29;50.48;94651.28;5003323;28;20207;-84
2023/12/27 14:37:23;;;;;;;2.50;2.20;;;;;;;12.28;50.22;94652.28;5021752;28;20233;-84
2023/12/27 14:39:54;;;;;;;2.30;2.03;;;;;;;12.10;50.63;94647.84;5030617;28;20194;-84
2023/12/27 14:42:21;;;;;;;2.20;2.00;;;;;;;12.01;51.13;94680.84;5031198;28;20202;-84
2023/12/27 14:44:50;;;;;;;2.20;2.00;;;;;;;11.90;51.29;94688.44;5019763;28;20205;-85
2023/12/27 14:47:17;;;;;;;2.67;2.20;;;;;;;11.83;51.55;94691.06;5011944;28;20215;-86
2023/12/27 14:49:43;;;;;;;4.07;2.60;;;;;;;11.77;51.70;94704.75;5007479;28;20661;-85
2023/12/27 14:52:15;;;;;;;3.30;2.80;;;;;;;11.72;51.77;94712.31;5009969;28;20583;-85
2023/12/27 14:54:42;;;;;;;3.63;2.10;;;;;;;11.69;52.05;94721.25;5009719;28;20194;-85
2023/12/27 14:57:08;;;;;;;2.73;2.17;;;;;;;11.62;52.30;94724.81;5010830;28;20594;-85
2023/12/27 14:59:35;;;;;;;2.77;2.10;;;;;;;11.64;52.12;94730.56;5000127;28;20235;-84
2023/12/27 15:02:06;;;;;;;2.93;2.30;;;;;;;11.71;52.25;94733.94;5010697;28;20696;-82
2023/12/27 15:04:43;;;;;;;;;;;;;;;;;;;;;
2023/12/27 15:07:11;;;;;;;3.97;2.47;;;;;;;11.69;52.59;94747.03;5012201;28;20229;-87
2023/12/27 15:09:37;;;;;;;2.67;2.10;;;;;;;11.73;52.29;94745.63;5012982;28;20198;-85
2023/12/27 15:12:05;;;;;;;4.27;2.30;;;;;;;11.67;52.68;94761.09;5008745;28;20202;-85
2023/12/27 15:14:31;;;;;;;3.67;2.33;;;;;;;11.55;52.85;94758.34;5014850;28;20213;-85
2023/12/27 15:17:04;;;;;;;3.17;2.20;;;;;;;11.55;53.14;94767.88;5030206;28;20700;-85
2023/12/27 15:19:30;;;;;;;3.17;2.37;;;;;;;11.47;53.21;94776.63;5029757;28;20334;-85
2023/12/27 15:21:58;;;;;;;4.30;2.30;;;;;;;11.46;53.09;94772.47;5007458;28;20900;-85
2023/12/27 15:24:26;;;;;;;2.70;2.20;;;;;;;11.48;53.07;94778.22;5010329;28;20209;-85
2023/12/27 15:26:55;;;;;;;3.57;2.27;;;;;;;11.48;53.43;94785.16;5009501;28;20227;-85
2023/12/27 15:29:22;;;;;;;5.37;3.70;;;;;;;11.42;53.51;94791.91;5017245;28;20549;-86
2023/12/27 15:31:51;;;;;;;4.40;2.90;;;;;;;11.37;53.61;94804.59;5029488;28;20204;-85
2023/12/27 15:34:19;;;;;;;2.93;2.30;;;;;;;11.27;53.93;94797.28;5029165;28;20567;-87
2023/12/27 15:36:46;;;;;;;2.50;2.30;;;;;;;11.21;53.74;94805.78;5022131;28;20227;-87
2023/12/27 15:39:12;;;;;;;9.53;2.17;;;;;;;11.13;53.93;94806.00;5001237;28;20210;-86
2023/12/27 15:41:40;;;;;;;2.40;2.20;;;;;;;11.11;54.07;94815.72;5022215;28;20199;-85
2023/12/27 15:44:07;;;;;;;4.70;2.47;;;;;;;11.07;54.18;94822.25;5009857;28;20271;-84
2023/12/27 15:46:36;;;;;;;3.77;2.60;;;;;;;11.04;54.29;94822.63;5009619;28;20226;-85
2023/12/27 15:49:03;;;;;;;4.67;2.40;;;;;;;11.06;53.95;94816.31;5010922;28;20191;-87
2023/12/27 15:51:44;;;;;;;3.70;2.40;;;;;;;11.00;54.60;94827.38;5010636;28;20592;-87
2023/12/27 15:54:20;;;;;;;2.77;2.47;;;;;;;11.05;54.42;94826.81;5010214;28;20215;-87
2023/12/27 15:56:54;;;;;;;3.23;2.90;;;;;;;11.02;54.46;94827.19;5010140;28;20311;-85
2023/12/27 15:59:21;;;;;;;3.30;2.20;;;;;;;11.04;53.89;94823.44;5012393;28;20229;-85
2023/12/27 16:01:49;;;;;;;3.27;2.60;;;;;;;11.05;54.05;94827.59;5017317;28;20643;-86
2023/12/27 16:04:17;;;;;;;2.70;2.50;;;;;;;11.04;54.09;94822.63;5029179;28;20187;-85
2023/12/27 16:06:45;;;;;;;2.83;2.37;;;;;;;11.02;54.37;94832.34;5031791;28;20232;-85
2023/12/27 16:09:18;;;;;;;3.53;2.70;;;;;;;10.99;54.47;94835.31;5011215;28;20210;-85
2023/12/27 16:12:03;;;;;;;2.87;2.50;;;;;;;10.95;54.76;94845.22;5013615;28;20676;-85
2023/12/27 16:17:15;;;;;;;4.00;2.60;;;;;;;10.83;54.99;94856.28;5011997;28;20227;-85